Time;durP1;ratioP1;P1;durP2;ratioP2;P2;SDS_P1;SDS_P2;PMS_P1;PMS_P2;Temp;Humidity;BMP_temperature;BMP_pressure;BME280_temperature;BME280_humidity;BME280_pressure;Samples;Min_cycle;Max_cycle;Signal;HPM_P1;HPM_P2
2021/08/31 00:01:42;;;;;;;25.53;18.13;;;;;;;;;;5055567;28;20028;-83
2021/08/31 00:04:07;;;;;;;24.87;18.63;;;;;;;;;;5055520;28;20047;-83
2021/08/31 00:06:33;;;;;;;28.10;19.53;;;;;;;;;;5054250;28;20090;-81
2021/08/31 00:08:58;;;;;;;24.83;19.27;;;;;;;;;;5054549;28;20031;-84
2021/08/31 00:11:24;;;;;;;26.17;18.87;;;;;;;;;;5054641;28;20025;-83
2021/08/31 00:13:49;;;;;;;25.43;18.17;;;;;;;;;;5055177;28;20484;-81
2021/08/31 00:16:14;;;;;;;27.13;19.47;;;;;;;;;;5055604;28;20025;-84
2021/08/31 00:18:42;;;;;;;27.80;19.27;;;;;;;;;;5055906;28;20044;-84
2021/08/31 00:21:07;;;;;;;25.20;19.65;;;;;;;;;;5056383;28;20020;-81
2021/08/31 00:23:32;;;;;;;26.50;19.80;;;;;;;;;;5056463;28;20036;-83
2021/08/31 00:25:58;;;;;;;27.67;20.40;;;;;;;;;;5056041;28;20119;-80
2021/08/31 00:28:23;;;;;;;25.90;19.93;;;;;;;;;;5057780;28;20037;-81
2021/08/31 00:30:48;;;;;;;26.10;20.57;;;;;;;;;;5055760;28;20025;-82
2021/08/31 00:33:14;;;;;;;31.03;21.40;;;;;;;;;;5054660;28;20028;-83
2021/08/31 00:35:39;;;;;;;29.23;20.80;;;;;;;;;;5054872;28;20250;-84
2021/08/31 00:38:05;;;;;;;32.23;20.67;;;;;;;;;;5054874;28;20032;-83
2021/08/31 00:40:30;;;;;;;30.50;21.70;;;;;;;;;;5053692;28;20024;-81
2021/08/31 00:42:55;;;;;;;30.53;20.90;;;;;;;;;;5053689;28;20048;-81
2021/08/31 00:45:22;;;;;;;31.50;21.90;;;;;;;;;;5054941;28;20056;-82
2021/08/31 00:47:47;;;;;;;34.78;23.38;;;;;;;;;;5054738;28;20017;-85
2021/08/31 00:50:14;;;;;;;30.20;21.87;;;;;;;;;;5054886;28;20033;-84
2021/08/31 00:52:40;;;;;;;34.83;21.35;;;;;;;;;;5054975;28;20059;-83
2021/08/31 00:55:08;;;;;;;33.50;21.07;;;;;;;;;;5054730;28;20017;-85
2021/08/31 00:57:34;;;;;;;34.28;22.20;;;;;;;;;;5055095;28;20028;-84
2021/08/31 00:59:59;;;;;;;34.55;22.83;;;;;;;;;;5054745;28;20036;-80
2021/08/31 01:02:25;;;;;;;34.80;22.02;;;;;;;;;;5054935;28;20029;-83
2021/08/31 01:04:50;;;;;;;32.20;22.52;;;;;;;;;;5053626;28;20039;-83
2021/08/31 01:07:16;;;;;;;32.10;20.97;;;;;;;;;;5054534;28;20028;-81
2021/08/31 01:09:43;;;;;;;35.70;22.63;;;;;;;;;;5053830;28;20029;-83
2021/08/31 01:12:09;;;;;;;35.30;22.88;;;;;;;;;;5054715;28;20021;-81
2021/08/31 01:14:34;;;;;;;36.53;23.00;;;;;;;;;;5063750;28;20087;-81
2021/08/31 01:17:00;;;;;;;35.93;23.10;;;;;;;;;;5064869;28;20061;-80
2021/08/31 01:19:31;;;;;;;33.10;21.67;;;;;;;;;;5065107;28;20024;-80
2021/08/31 01:22:04;;;;;;;32.70;21.05;;;;;;;;;;5063118;28;20021;-80
2021/08/31 01:24:29;;;;;;;35.97;23.58;;;;;;;;;;5065713;28;20411;-80
2021/08/31 01:26:57;;;;;;;34.93;22.83;;;;;;;;;;5055224;28;20075;-82
2021/08/31 01:29:24;;;;;;;32.38;21.92;;;;;;;;;;5057355;28;20071;-82
2021/08/31 01:31:49;;;;;;;31.27;22.00;;;;;;;;;;5060740;28;20435;-80
2021/08/31 01:34:14;;;;;;;32.43;20.87;;;;;;;;;;5061551;28;20040;-81
2021/08/31 01:36:39;;;;;;;31.10;21.40;;;;;;;;;;5075278;28;20017;-83
2021/08/31 01:39:06;;;;;;;32.47;21.77;;;;;;;;;;5074712;28;20097;-81
2021/08/31 01:41:32;;;;;;;35.13;21.40;;;;;;;;;;5076368;28;20048;-80
2021/08/31 01:43:57;;;;;;;32.53;21.80;;;;;;;;;;5059517;28;20063;-80
2021/08/31 01:46:22;;;;;;;30.37;21.03;;;;;;;;;;5058974;28;20075;-79
2021/08/31 01:48:48;;;;;;;31.87;22.13;;;;;;;;;;5060571;28;20094;-81
2021/08/31 01:51:13;;;;;;;36.43;22.57;;;;;;;;;;5060054;28;20032;-80
2021/08/31 01:53:39;;;;;;;33.37;21.67;;;;;;;;;;5057415;28;20102;-84
2021/08/31 01:56:04;;;;;;;30.77;20.13;;;;;;;;;;5057780;28;20020;-81
2021/08/31 01:58:30;;;;;;;31.67;22.43;;;;;;;;;;5056633;28;20039;-85
2021/08/31 02:00:56;;;;;;;28.37;20.27;;;;;;;;;;5057984;28;20097;-84
2021/08/31 02:03:21;;;;;;;31.10;22.97;;;;;;;;;;5056843;28;20370;-83
2021/08/31 02:05:46;;;;;;;33.27;22.70;;;;;;;;;;5056918;28;20056;-79
2021/08/31 02:08:12;;;;;;;31.90;21.17;;;;;;;;;;5056520;28;20364;-82
2021/08/31 02:10:37;;;;;;;32.53;22.10;;;;;;;;;;5057760;28;20021;-82
2021/08/31 02:13:03;;;;;;;30.10;20.03;;;;;;;;;;5057548;28;20025;-81
2021/08/31 02:15:29;;;;;;;29.97;21.07;;;;;;;;;;5057529;28;20021;-80
2021/08/31 02:17:54;;;;;;;28.67;20.47;;;;;;;;;;5057658;28;20032;-82
2021/08/31 02:20:19;;;;;;;31.87;21.87;;;;;;;;;;5057190;28;20363;-85
2021/08/31 02:22:45;;;;;;;28.43;20.23;;;;;;;;;;5057664;28;20347;-83
2021/08/31 02:25:10;;;;;;;33.37;21.80;;;;;;;;;;5056462;28;20040;-84
2021/08/31 02:27:36;;;;;;;38.20;25.63;;;;;;;;;;5057414;28;20036;-82
2021/08/31 02:30:03;;;;;;;41.03;25.43;;;;;;;;;;5057135;28;20040;-80
2021/08/31 02:32:28;;;;;;;34.05;22.17;;;;;;;;;;5057216;28;20025;-84
2021/08/31 02:34:54;;;;;;;32.10;22.67;;;;;;;;;;5056542;28;20036;-80
2021/08/31 02:37:19;;;;;;;35.93;24.00;;;;;;;;;;5056994;28;20028;-84
2021/08/31 02:39:44;;;;;;;36.53;23.03;;;;;;;;;;5055905;28;20426;-82
2021/08/31 02:42:10;;;;;;;36.50;23.53;;;;;;;;;;5056715;28;20051;-81
2021/08/31 02:44:35;;;;;;;33.73;22.87;;;;;;;;;;5056094;28;20029;-83
2021/08/31 02:47:00;;;;;;;39.27;23.47;;;;;;;;;;5056504;28;20032;-84
2021/08/31 02:49:26;;;;;;;35.40;23.07;;;;;;;;;;5056554;28;20025;-80
2021/08/31 02:51:52;;;;;;;33.97;22.13;;;;;;;;;;5056711;28;20032;-79
2021/08/31 02:54:17;;;;;;;33.07;21.83;;;;;;;;;;5055813;28;20028;-84
2021/08/31 02:56:42;;;;;;;30.93;20.40;;;;;;;;;;5056505;28;20054;-80
2021/08/31 02:59:08;;;;;;;40.70;25.83;;;;;;;;;;5056592;28;20021;-81
2021/08/31 03:02:04;;;;;;;36.40;24.77;;;;;;;;;;5056406;28;20025;-80
2021/08/31 03:04:25;;;;;;;35.85;23.42;;;;;;;;;;5056689;28;20035;-80
2021/08/31 03:06:50;;;;;;;34.40;22.93;;;;;;;;;;5056595;28;20033;-83
2021/08/31 03:09:15;;;;;;;32.63;21.47;;;;;;;;;;5059713;28;20029;-85
2021/08/31 03:11:41;;;;;;;32.87;20.20;;;;;;;;;;5059287;28;20043;-82
2021/08/31 03:14:06;;;;;;;33.03;21.33;;;;;;;;;;5058019;28;20027;-81
2021/08/31 03:16:31;;;;;;;33.53;21.43;;;;;;;;;;5055293;28;20392;-80
2021/08/31 03:18:57;;;;;;;32.87;22.00;;;;;;;;;;5056080;28;20104;-84
2021/08/31 03:21:22;;;;;;;34.23;22.47;;;;;;;;;;5056219;28;20355;-83
2021/08/31 03:23:47;;;;;;;33.77;21.50;;;;;;;;;;5055014;28;20447;-83
2021/08/31 03:26:13;;;;;;;32.17;21.03;;;;;;;;;;5056159;28;20025;-85
2021/08/31 03:28:38;;;;;;;32.70;19.77;;;;;;;;;;5056121;28;20029;-83
2021/08/31 03:31:03;;;;;;;33.07;20.97;;;;;;;;;;5054658;28;20459;-81
2021/08/31 03:33:29;;;;;;;30.40;21.20;;;;;;;;;;5055677;28;20024;-83
2021/08/31 03:35:54;;;;;;;32.37;21.50;;;;;;;;;;5055050;28;20508;-82
2021/08/31 03:38:19;;;;;;;29.70;19.60;;;;;;;;;;5055819;28;20395;-82
2021/08/31 03:40:45;;;;;;;32.17;20.77;;;;;;;;;;5055922;28;20067;-85
2021/08/31 03:43:10;;;;;;;32.80;20.33;;;;;;;;;;5054430;28;20045;-84
2021/08/31 03:45:35;;;;;;;32.90;20.43;;;;;;;;;;5055826;28;20481;-81
2021/08/31 03:48:01;;;;;;;31.40;20.23;;;;;;;;;;5054570;28;20355;-84
2021/08/31 03:50:26;;;;;;;33.03;20.40;;;;;;;;;;5055676;28;20488;-81
2021/08/31 03:52:51;;;;;;;34.93;21.67;;;;;;;;;;5055275;28;20025;-80
2021/08/31 03:55:16;;;;;;;29.70;19.07;;;;;;;;;;5055393;28;20451;-85
2021/08/31 03:57:42;;;;;;;28.50;19.70;;;;;;;;;;5055274;28;20025;-82
2021/08/31 04:00:08;;;;;;;29.67;19.63;;;;;;;;;;5055169;28;20090;-81
2021/08/31 04:02:33;;;;;;;30.60;20.37;;;;;;;;;;5054341;28;20033;-83
2021/08/31 04:04:58;;;;;;;32.30;19.63;;;;;;;;;;5055363;28;20033;-83
2021/08/31 04:07:24;;;;;;;31.37;19.30;;;;;;;;;;5053808;28;20028;-84
2021/08/31 04:09:50;;;;;;;34.40;19.87;;;;;;;;;;5055902;28;20021;-82
2021/08/31 04:12:15;;;;;;;28.63;19.70;;;;;;;;;;5054005;28;20494;-80
2021/08/31 04:14:40;;;;;;;30.80;19.33;;;;;;;;;;5055198;28;20316;-84
2021/08/31 04:17:06;;;;;;;33.00;20.47;;;;;;;;;;5054390;28;20036;-83
2021/08/31 04:19:31;;;;;;;31.10;19.47;;;;;;;;;;5055447;28;20382;-84
2021/08/31 04:21:56;;;;;;;31.88;20.17;;;;;;;;;;5054175;28;20025;-83
2021/08/31 04:24:22;;;;;;;31.03;21.53;;;;;;;;;;5054224;28;20041;-84
2021/08/31 04:26:47;;;;;;;31.97;20.33;;;;;;;;;;5054969;28;20078;-80
2021/08/31 04:29:12;;;;;;;33.53;21.97;;;;;;;;;;5055049;28;20090;-83
2021/08/31 04:31:38;;;;;;;31.23;20.13;;;;;;;;;;5055306;28;20106;-83
2021/08/31 04:34:03;;;;;;;38.83;21.17;;;;;;;;;;5055332;28;20426;-84
2021/08/31 04:36:28;;;;;;;33.40;20.20;;;;;;;;;;5055256;28;20063;-81
2021/08/31 04:38:54;;;;;;;33.53;21.27;;;;;;;;;;5055132;28;20280;-82
2021/08/31 04:41:20;;;;;;;33.10;20.13;;;;;;;;;;5054703;28;20029;-82
2021/08/31 04:43:45;;;;;;;33.13;20.97;;;;;;;;;;5053939;28;20052;-81
2021/08/31 04:46:10;;;;;;;33.47;20.83;;;;;;;;;;5054893;28;20052;-81
2021/08/31 04:48:37;;;;;;;35.80;20.60;;;;;;;;;;5054967;28;20091;-83
2021/08/31 04:51:02;;;;;;;33.70;21.52;;;;;;;;;;5054556;28;20028;-81
2021/08/31 04:53:28;;;;;;;33.38;19.77;;;;;;;;;;5054875;28;20529;-84
2021/08/31 04:55:53;;;;;;;37.17;21.63;;;;;;;;;;5055070;28;20565;-84
2021/08/31 04:58:18;;;;;;;35.63;20.70;;;;;;;;;;5053820;28;20470;-81
2021/08/31 05:00:43;;;;;;;34.63;20.37;;;;;;;;;;5053842;28;20086;-81
2021/08/31 05:03:09;;;;;;;34.73;19.60;;;;;;;;;;5054027;28;20328;-84
2021/08/31 05:05:34;;;;;;;35.90;20.40;;;;;;;;;;5057628;28;20021;-80
2021/08/31 05:08:00;;;;;;;33.40;20.97;;;;;;;;;;5058816;28;20450;-81
2021/08/31 05:10:25;;;;;;;36.63;20.73;;;;;;;;;;5059546;28;20332;-85
2021/08/31 05:12:50;;;;;;;32.80;19.13;;;;;;;;;;5057953;28;20036;-83
2021/08/31 05:15:16;;;;;;;31.77;19.80;;;;;;;;;;5059641;28;20036;-81
2021/08/31 05:17:42;;;;;;;37.37;21.83;;;;;;;;;;5059134;28;20473;-80
2021/08/31 05:20:07;;;;;;;32.40;18.80;;;;;;;;;;5058749;28;20021;-84
2021/08/31 05:22:33;;;;;;;33.40;19.65;;;;;;;;;;5059087;28;20082;-83
2021/08/31 05:25:00;;;;;;;32.70;19.23;;;;;;;;;;5058621;28;20109;-82
2021/08/31 05:27:26;;;;;;;32.80;18.02;;;;;;;;;;5058531;28;20134;-85
2021/08/31 05:29:51;;;;;;;33.77;18.60;;;;;;;;;;5062106;28;20049;-83
2021/08/31 05:32:17;;;;;;;33.30;18.67;;;;;;;;;;5063759;28;20055;-84
2021/08/31 05:34:43;;;;;;;33.80;18.07;;;;;;;;;;5062836;28;20457;-82
2021/08/31 05:37:08;;;;;;;28.43;16.70;;;;;;;;;;5065083;28;20025;-81
2021/08/31 05:39:34;;;;;;;31.07;18.03;;;;;;;;;;5064832;28;20041;-83
2021/08/31 05:42:04;;;;;;;31.37;16.53;;;;;;;;;;5066523;28;20109;-82
2021/08/31 05:44:31;;;;;;;28.40;16.30;;;;;;;;;;5062408;28;20070;-81
2021/08/31 05:46:57;;;;;;;26.30;15.93;;;;;;;;;;5065176;28;20078;-80
2021/08/31 05:49:22;;;;;;;28.33;17.23;;;;;;;;;;5064100;28;20086;-82
2021/08/31 05:51:48;;;;;;;31.17;17.80;;;;;;;;;;5063447;28;20021;-81
2021/08/31 05:54:13;;;;;;;28.97;17.67;;;;;;;;;;5060993;28;20053;-82
2021/08/31 05:56:38;;;;;;;27.33;18.33;;;;;;;;;;5057149;28;20195;-84
2021/08/31 05:59:04;;;;;;;23.90;17.00;;;;;;;;;;5057393;28;20029;-83
2021/08/31 06:01:29;;;;;;;24.57;16.27;;;;;;;;;;5057543;28;20029;-81
2021/08/31 06:03:54;;;;;;;25.40;16.90;;;;;;;;;;5060593;28;20025;-81
2021/08/31 06:06:20;;;;;;;23.67;16.07;;;;;;;;;;5065016;28;20020;-83
2021/08/31 06:08:46;;;;;;;22.13;15.97;;;;;;;;;;5076737;28;20029;-80
2021/08/31 06:11:12;;;;;;;20.80;15.00;;;;;;;;;;5065380;28;20033;-81
2021/08/31 06:13:38;;;;;;;25.70;14.68;;;;;;;;;;5059438;28;20059;-81
2021/08/31 06:16:03;;;;;;;23.23;15.77;;;;;;;;;;5058630;28;20033;-84
2021/08/31 06:18:29;;;;;;;22.90;15.87;;;;;;;;;;5057274;28;20143;-81
2021/08/31 06:20:54;;;;;;;17.80;14.30;;;;;;;;;;5058386;28;20025;-83
2021/08/31 06:23:19;;;;;;;21.40;14.33;;;;;;;;;;5056836;28;20032;-82
2021/08/31 06:25:45;;;;;;;19.20;13.87;;;;;;;;;;5057760;28;20048;-80
2021/08/31 06:28:10;;;;;;;20.00;13.07;;;;;;;;;;5056370;28;20402;-79
2021/08/31 06:30:35;;;;;;;16.87;13.07;;;;;;;;;;5056179;28;20025;-83
2021/08/31 06:33:01;;;;;;;14.57;10.63;;;;;;;;;;5057667;28;20033;-87
2021/08/31 06:35:26;;;;;;;14.37;10.33;;;;;;;;;;5057499;28;20033;-81
2021/08/31 06:37:51;;;;;;;13.83;11.03;;;;;;;;;;5057654;28;20013;-83
2021/08/31 06:40:16;;;;;;;13.67;10.50;;;;;;;;;;5057099;28;20025;-82
2021/08/31 06:42:42;;;;;;;13.90;10.97;;;;;;;;;;5056756;28;20476;-84
2021/08/31 06:45:07;;;;;;;13.07;10.07;;;;;;;;;;5057607;28;20028;-83
2021/08/31 06:47:33;;;;;;;13.30;10.23;;;;;;;;;;5056067;28;20029;-84
2021/08/31 06:49:58;;;;;;;14.13;10.73;;;;;;;;;;5057187;28;20128;-83
2021/08/31 06:52:23;;;;;;;13.33;10.37;;;;;;;;;;5060727;28;20111;-82
2021/08/31 06:54:48;;;;;;;12.70;10.53;;;;;;;;;;5061177;28;20020;-80
2021/08/31 06:57:14;;;;;;;15.27;10.93;;;;;;;;;;5060798;28;20036;-84
2021/08/31 06:59:39;;;;;;;16.63;11.70;;;;;;;;;;5060352;28;20056;-79
2021/08/31 07:02:04;;;;;;;16.57;11.07;;;;;;;;;;5059149;28;20025;-81
2021/08/31 07:04:30;;;;;;;14.63;11.00;;;;;;;;;;5060320;28;20028;-81
2021/08/31 07:06:55;;;;;;;19.87;12.10;;;;;;;;;;5057342;28;20029;-81
2021/08/31 07:09:20;;;;;;;17.87;12.60;;;;;;;;;;5056572;28;20083;-82
2021/08/31 07:11:46;;;;;;;15.80;12.17;;;;;;;;;;5057050;28;20063;-79
2021/08/31 07:14:11;;;;;;;15.77;11.87;;;;;;;;;;5056386;28;20025;-79
2021/08/31 07:16:36;;;;;;;17.70;12.83;;;;;;;;;;5055363;28;20061;-80
2021/08/31 07:19:02;;;;;;;17.60;13.33;;;;;;;;;;5055429;28;20032;-80
2021/08/31 07:21:28;;;;;;;19.83;13.53;;;;;;;;;;5056710;28;20028;-84
2021/08/31 07:23:53;;;;;;;18.97;12.67;;;;;;;;;;5056475;28;20033;-85
2021/08/31 07:26:19;;;;;;;20.80;14.63;;;;;;;;;;5054797;28;20024;-82
2021/08/31 07:28:44;;;;;;;21.93;14.67;;;;;;;;;;5056320;28;20032;-84
2021/08/31 07:31:10;;;;;;;23.10;16.40;;;;;;;;;;5056325;28;20025;-81
2021/08/31 07:33:36;;;;;;;22.10;16.17;;;;;;;;;;5055243;28;20442;-83
2021/08/31 07:36:01;;;;;;;23.67;15.60;;;;;;;;;;5058204;28;20398;-80
2021/08/31 07:38:26;;;;;;;27.00;18.90;;;;;;;;;;5057440;28;20478;-82
2021/08/31 07:40:52;;;;;;;27.73;19.80;;;;;;;;;;5057916;28;20329;-83
2021/08/31 07:43:17;;;;;;;27.67;19.03;;;;;;;;;;5056727;28;20063;-80
2021/08/31 07:45:42;;;;;;;25.37;19.33;;;;;;;;;;5059294;28;20037;-82
2021/08/31 07:48:08;;;;;;;24.07;17.33;;;;;;;;;;5057288;28;20089;-80
2021/08/31 07:50:34;;;;;;;26.13;17.37;;;;;;;;;;5058253;28;20029;-84
2021/08/31 07:52:59;;;;;;;25.42;17.15;;;;;;;;;;5056324;28;20024;-81
2021/08/31 07:55:25;;;;;;;19.67;15.20;;;;;;;;;;5058624;28;20037;-84
2021/08/31 07:57:50;;;;;;;20.83;14.80;;;;;;;;;;5058020;28;20450;-82
2021/08/31 08:00:17;;;;;;;20.53;14.90;;;;;;;;;;5057414;28;20025;-83
2021/08/31 08:02:43;;;;;;;18.25;13.88;;;;;;;;;;5056020;28;20025;-83
2021/08/31 08:05:10;;;;;;;21.70;15.07;;;;;;;;;;5055955;28;20029;-80
2021/08/31 08:07:35;;;;;;;21.40;14.63;;;;;;;;;;5055777;28;20025;-83
2021/08/31 08:10:00;;;;;;;18.87;14.10;;;;;;;;;;5055420;28;20407;-82
2021/08/31 08:12:26;;;;;;;20.10;14.90;;;;;;;;;;5054454;28;20044;-84
2021/08/31 08:14:51;;;;;;;18.50;13.30;;;;;;;;;;5055493;28;20418;-82
2021/08/31 08:17:21;;;;;;;19.20;12.97;;;;;;;;;;5055683;28;20024;-84
2021/08/31 08:19:47;;;;;;;15.63;12.82;;;;;;;;;;5055527;28;20024;-81
2021/08/31 08:22:14;;;;;;;15.38;11.43;;;;;;;;;;5054552;28;20056;-83
2021/08/31 08:24:40;;;;;;;16.20;12.25;;;;;;;;;;5055293;28;20041;-82
2021/08/31 08:27:05;;;;;;;17.37;13.60;;;;;;;;;;5055306;28;20033;-82
2021/08/31 08:29:31;;;;;;;18.90;12.80;;;;;;;;;;5055311;28;20474;-82
2021/08/31 08:31:56;;;;;;;17.10;14.03;;;;;;;;;;5054378;28;20025;-83
2021/08/31 08:34:23;;;;;;;15.70;12.33;;;;;;;;;;5055500;28;20110;-81
2021/08/31 08:36:49;;;;;;;;;;;;;;;;;;5055741;28;20147;-85
2021/08/31 08:39:14;;;;;;;17.05;13.00;;;;;;;;;;5058209;28;20282;-82
2021/08/31 08:41:40;;;;;;;21.23;15.07;;;;;;;;;;5059642;28;20039;-84
2021/08/31 08:44:06;;;;;;;16.17;12.70;;;;;;;;;;5059628;28;20049;-80
2021/08/31 08:46:31;;;;;;;16.73;12.87;;;;;;;;;;5059634;28;20530;-84
2021/08/31 08:48:57;;;;;;;17.87;13.67;;;;;;;;;;5058674;28;20458;-84
2021/08/31 08:51:24;;;;;;;18.75;14.00;;;;;;;;;;5058801;28;20037;-83
2021/08/31 08:53:49;;;;;;;18.63;14.15;;;;;;;;;;5059679;28;20108;-83
2021/08/31 08:56:15;;;;;;;17.50;14.07;;;;;;;;;;5059666;28;20068;-82
2021/08/31 08:58:40;;;;;;;17.40;12.90;;;;;;;;;;5059485;28;20025;-82
2021/08/31 09:01:10;;;;;;;17.80;13.33;;;;;;;;;;5060381;28;20484;-82
2021/08/31 09:03:39;;;;;;;19.23;13.63;;;;;;;;;;5060253;28;20029;-81
2021/08/31 09:06:16;;;;;;;19.23;13.25;;;;;;;;;;5059953;28;20036;-83
2021/08/31 09:08:53;;;;;;;17.20;14.48;;;;;;;;;;5059921;28;20036;-81
2021/08/31 09:11:22;;;;;;;17.30;12.82;;;;;;;;;;5059828;28;20036;-80
2021/08/31 09:13:50;;;;;;;18.45;14.40;;;;;;;;;;5059597;28;20110;-80
2021/08/31 09:16:28;;;;;;;17.40;13.18;;;;;;;;;;5059478;28;20055;-85
2021/08/31 09:18:55;;;;;;;15.38;12.15;;;;;;;;;;5058845;28;20029;-82
2021/08/31 09:21:23;;;;;;;15.98;12.15;;;;;;;;;;5058690;28;20024;-82
2021/08/31 09:23:53;;;;;;;16.10;11.88;;;;;;;;;;5058405;28;20108;-83
2021/08/31 09:26:32;;;;;;;15.10;11.85;;;;;;;;;;5059476;28;20407;-83
2021/08/31 09:29:02;;;;;;;16.00;12.15;;;;;;;;;;5063197;28;20029;-81
2021/08/31 09:31:28;;;;;;;17.58;12.52;;;;;;;;;;5066071;28;20059;-80
2021/08/31 09:33:56;;;;;;;13.90;11.70;;;;;;;;;;5066021;28;20399;-81
2021/08/31 09:36:24;;;;;;;14.35;12.27;;;;;;;;;;5066283;28;20040;-83
2021/08/31 09:38:53;;;;;;;13.82;11.35;;;;;;;;;;5073309;28;20021;-84
2021/08/31 09:41:33;;;;;;;13.43;12.02;;;;;;;;;;5058366;28;20033;-82
2021/08/31 09:44:01;;;;;;;12.75;10.80;;;;;;;;;;5058978;28;20435;-81
2021/08/31 09:46:49;;;;;;;11.65;10.45;;;;;;;;;;5059480;28;20021;-81
2021/08/31 09:49:26;;;;;;;11.77;10.45;;;;;;;;;;5058506;28;20447;-81
2021/08/31 09:52:05;;;;;;;13.60;10.45;;;;;;;;;;5058790;28;20028;-82
2021/08/31 09:54:34;;;;;;;13.43;10.30;;;;;;;;;;5059624;28;20083;-83
2021/08/31 09:56:59;;;;;;;12.90;9.90;;;;;;;;;;5059025;28;20031;-85
2021/08/31 09:59:24;;;;;;;12.00;10.13;;;;;;;;;;5057609;28;20025;-84
2021/08/31 10:01:53;;;;;;;11.37;9.67;;;;;;;;;;5059043;28;20049;-84
2021/08/31 10:04:21;;;;;;;11.13;10.02;;;;;;;;;;5058448;28;20506;-84
2021/08/31 10:06:48;;;;;;;11.85;9.95;;;;;;;;;;5058151;28;20107;-83
2021/08/31 10:09:17;;;;;;;12.18;10.95;;;;;;;;;;5057735;28;20067;-83
2021/08/31 10:11:42;;;;;;;11.65;10.38;;;;;;;;;;5056657;28;20028;-84
2021/08/31 10:14:09;;;;;;;13.03;10.90;;;;;;;;;;5057254;28;20077;-82
2021/08/31 10:16:35;;;;;;;11.82;10.63;;;;;;;;;;5056940;28;20024;-85
2021/08/31 10:19:01;;;;;;;11.55;9.95;;;;;;;;;;5057428;28;20033;-82
2021/08/31 10:21:27;;;;;;;11.57;10.10;;;;;;;;;;5056588;28;20032;-81
2021/08/31 10:23:53;;;;;;;12.07;10.85;;;;;;;;;;5056669;28;20465;-84
2021/08/31 10:26:28;;;;;;;12.10;10.90;;;;;;;;;;5056979;28;20183;-84
2021/08/31 10:29:15;;;;;;;13.60;11.00;;;;;;;;;;5059674;28;20029;-81
2021/08/31 10:31:43;;;;;;;12.90;9.85;;;;;;;;;;5066519;28;20040;-81
2021/08/31 10:34:30;;;;;;;10.70;9.35;;;;;;;;;;5075295;28;20056;-81
2021/08/31 10:37:15;;;;;;;11.10;9.88;;;;;;;;;;5075217;28;20036;-81
2021/08/31 10:39:41;;;;;;;13.98;10.13;;;;;;;;;;5064158;28;20047;-80
2021/08/31 10:42:09;;;;;;;10.38;9.15;;;;;;;;;;5062249;28;20036;-81
2021/08/31 10:44:42;;;;;;;10.23;9.18;;;;;;;;;;5060004;28;20033;-81
2021/08/31 10:47:15;;;;;;;9.48;8.57;;;;;;;;;;5057615;28;20431;-83
2021/08/31 10:50:08;;;;;;;10.73;9.13;;;;;;;;;;5058493;28;20045;-85
2021/08/31 10:52:40;;;;;;;10.77;8.20;;;;;;;;;;5059053;28;20020;-82
2021/08/31 10:55:27;;;;;;;10.63;9.52;;;;;;;;;;5059501;28;20107;-85
2021/08/31 10:57:57;;;;;;;11.25;9.15;;;;;;;;;;5050049;28;20044;-86
2021/08/31 11:00:22;;;;;;;11.02;9.82;;;;;;;;;;5057621;28;20068;-86
2021/08/31 11:02:48;;;;;;;10.53;8.80;;;;;;;;;;5056311;28;20025;-83
2021/08/31 11:05:25;;;;;;;9.17;8.10;;;;;;;;;;5056367;28;20016;-84
2021/08/31 11:07:59;;;;;;;9.57;8.57;;;;;;;;;;5057711;28;20084;-85
2021/08/31 11:10:30;;;;;;;9.35;8.32;;;;;;;;;;5056432;28;20029;-85
2021/08/31 11:12:58;;;;;;;8.98;7.70;;;;;;;;;;5056124;28;20455;-83
2021/08/31 11:15:25;;;;;;;8.85;7.95;;;;;;;;;;5057056;28;20090;-79
2021/08/31 11:17:52;;;;;;;11.45;8.32;;;;;;;;;;5056965;28;20039;-83
2021/08/31 11:20:23;;;;;;;;;;;;;;;;;;5057545;28;20059;-80
2021/08/31 11:23:02;;;;;;;11.38;8.65;;;;;;;;;;5056902;28;19912;-80
2021/08/31 11:25:29;;;;;;;13.80;10.88;;;;;;;;;;5056067;28;20021;-81
2021/08/31 11:27:58;;;;;;;12.77;9.73;;;;;;;;;;5056765;28;20028;-83
2021/08/31 11:30:24;;;;;;;10.85;9.20;;;;;;;;;;5058388;28;20084;-83
2021/08/31 11:33:08;;;;;;;10.60;9.18;;;;;;;;;;5057890;28;20100;-78
2021/08/31 11:35:33;;;;;;;10.18;8.88;;;;;;;;;;5057904;28;20032;-82
2021/08/31 11:37:58;;;;;;;10.40;8.33;;;;;;;;;;5057197;28;20025;-81
2021/08/31 11:40:27;;;;;;;10.47;9.00;;;;;;;;;;5057529;28;20124;-78
2021/08/31 11:42:57;;;;;;;10.52;8.50;;;;;;;;;;5057323;28;20080;-82
2021/08/31 11:45:39;;;;;;;10.35;8.20;;;;;;;;;;5062786;28;20044;-80
2021/08/31 11:48:06;;;;;;;11.23;8.63;;;;;;;;;;5058624;28;20036;-81
2021/08/31 11:50:32;;;;;;;8.25;7.45;;;;;;;;;;5056912;28;20029;-85
2021/08/31 11:53:17;;;;;;;8.73;7.82;;;;;;;;;;5056621;28;20515;-81
2021/08/31 11:55:43;;;;;;;11.02;9.32;;;;;;;;;;5058185;28;20039;-83
2021/08/31 11:58:08;;;;;;;10.73;8.17;;;;;;;;;;5057363;28;20024;-79
2021/08/31 12:00:42;;;;;;;9.27;8.23;;;;;;;;;;5057825;28;20260;-83
2021/08/31 12:03:21;;;;;;;8.20;7.40;;;;;;;;;;5057679;28;20334;-82
2021/08/31 12:05:47;;;;;;;9.73;7.50;;;;;;;;;;5058307;28;20021;-81
2021/08/31 12:08:13;;;;;;;7.80;6.90;;;;;;;;;;5058409;28;20025;-78
2021/08/31 12:10:39;;;;;;;8.90;7.32;;;;;;;;;;5057474;28;20036;-81
2021/08/31 12:13:04;;;;;;;8.05;6.43;;;;;;;;;;5056115;28;20408;-87
2021/08/31 12:15:31;;;;;;;8.18;5.85;;;;;;;;;;5056995;28;20446;-80
2021/08/31 12:18:05;;;;;;;7.72;6.20;;;;;;;;;;5055997;28;20017;-83
2021/08/31 12:20:32;;;;;;;8.43;6.35;;;;;;;;;;5055832;28;20025;-83
2021/08/31 12:23:03;;;;;;;7.45;4.60;;;;;;;;;;5055698;28;20031;-82
2021/08/31 12:25:46;;;;;;;6.30;5.30;;;;;;;;;;5054571;28;20025;-79
2021/08/31 12:28:12;;;;;;;6.25;5.20;;;;;;;;;;5055035;28;20091;-80
2021/08/31 12:30:40;;;;;;;6.10;4.70;;;;;;;;;;5054247;28;20355;-82
2021/08/31 12:33:06;;;;;;;6.20;5.30;;;;;;;;;;5054097;28;20061;-79
2021/08/31 12:35:39;;;;;;;6.32;5.20;;;;;;;;;;5054996;28;20103;-79
2021/08/31 12:38:17;;;;;;;6.32;5.13;;;;;;;;;;5056693;28;20033;-78
2021/08/31 12:41:15;;;;;;;6.65;5.55;;;;;;;;;;5054341;28;20033;-81
2021/08/31 12:43:51;;;;;;;7.38;5.43;;;;;;;;;;5054810;28;20052;-78
2021/08/31 12:46:31;;;;;;;5.95;4.93;;;;;;;;;;5054380;28;20036;-80
2021/08/31 12:49:18;;;;;;;6.70;6.00;;;;;;;;;;5054303;28;20071;-81
2021/08/31 12:51:49;;;;;;;6.57;5.88;;;;;;;;;;5054142;28;20032;-80
2021/08/31 12:54:26;;;;;;;7.63;5.40;;;;;;;;;;5055549;28;20025;-85
2021/08/31 12:57:00;;;;;;;6.95;5.35;;;;;;;;;;5056855;28;20086;-86
2021/08/31 12:59:37;;;;;;;6.05;5.03;;;;;;;;;;5054786;28;20474;-85
2021/08/31 13:02:05;;;;;;;6.70;5.03;;;;;;;;;;5055212;28;20021;-83
2021/08/31 13:04:32;;;;;;;7.03;4.95;;;;;;;;;;5056156;28;20150;-86
2021/08/31 13:07:14;;;;;;;7.93;4.97;;;;;;;;;;5059557;28;20343;-87
2021/08/31 13:09:45;;;;;;;6.40;5.05;;;;;;;;;;5056036;28;20021;-83
2021/08/31 13:12:12;;;;;;;5.80;5.20;;;;;;;;;;5056484;28;20047;-84
2021/08/31 13:14:37;;;;;;;6.70;5.15;;;;;;;;;;5055655;28;20029;-83
2021/08/31 13:17:02;;;;;;;8.47;6.03;;;;;;;;;;5054780;28;20025;-87
2021/08/31 13:19:28;;;;;;;6.50;5.47;;;;;;;;;;5058399;28;20068;-85
2021/08/31 13:21:55;;;;;;;6.63;5.60;;;;;;;;;;5055655;28;20553;-87
2021/08/31 13:24:20;;;;;;;6.90;5.40;;;;;;;;;;5056265;28;20375;-84
2021/08/31 13:26:48;;;;;;;5.20;4.70;;;;;;;;;;5062643;28;20037;-83
2021/08/31 13:29:13;;;;;;;5.75;5.15;;;;;;;;;;5067332;28;20087;-84
2021/08/31 13:31:41;;;;;;;5.18;4.60;;;;;;;;;;5067886;28;20036;-84
2021/08/31 13:34:09;;;;;;;6.45;4.90;;;;;;;;;;5065115;28;20114;-84
2021/08/31 13:36:40;;;;;;;5.32;4.68;;;;;;;;;;5066269;28;20463;-85
2021/08/31 13:39:07;;;;;;;5.85;4.45;;;;;;;;;;5067194;28;20033;-83
2021/08/31 13:41:33;;;;;;;7.53;4.88;;;;;;;;;;5060261;28;20027;-86
2021/08/31 13:44:00;;;;;;;6.93;4.85;;;;;;;;;;5059567;28;20045;-84
2021/08/31 13:46:25;;;;;;;5.63;4.05;;;;;;;;;;5060119;28;20057;-84
2021/08/31 13:48:51;;;;;;;5.43;4.53;;;;;;;;;;5060033;28;20516;-85
2021/08/31 13:51:17;;;;;;;7.73;4.60;;;;;;;;;;5058540;28;20036;-86
2021/08/31 13:53:43;;;;;;;7.97;4.93;;;;;;;;;;5059878;28;20047;-84
2021/08/31 13:56:08;;;;;;;;;;;;;;;;;;5062170;28;20086;-83
2021/08/31 13:58:33;;;;;;;6.00;4.53;;;;;;;;;;5059612;28;19908;-83
2021/08/31 14:00:59;;;;;;;5.63;4.60;;;;;;;;;;5059512;28;20263;-82
2021/08/31 14:03:25;;;;;;;5.43;4.32;;;;;;;;;;5059451;28;20021;-84
2021/08/31 14:05:50;;;;;;;5.83;4.43;;;;;;;;;;5058883;28;20470;-85
2021/08/31 14:08:15;;;;;;;7.07;4.70;;;;;;;;;;5057814;28;20078;-87
2021/08/31 14:10:41;;;;;;;5.43;4.47;;;;;;;;;;5059345;28;20490;-83
2021/08/31 14:13:07;;;;;;;5.60;4.60;;;;;;;;;;5060704;28;20017;-84
2021/08/31 14:15:34;;;;;;;6.07;4.40;;;;;;;;;;5059234;28;20040;-86
2021/08/31 14:17:59;;;;;;;5.85;4.22;;;;;;;;;;5059648;28;20281;-85
2021/08/31 14:20:25;;;;;;;6.23;4.70;;;;;;;;;;5058501;28;20470;-84
2021/08/31 14:22:50;;;;;;;5.50;4.00;;;;;;;;;;5058114;28;20104;-84
2021/08/31 14:25:16;;;;;;;7.43;4.25;;;;;;;;;;5058685;28;20093;-83